Time;durP1;ratioP1;P1;durP2;ratioP2;P2;SDS_P1;SDS_P2;PMS_P1;PMS_P2;Temp;Humidity;BMP_temperature;BMP_pressure;BME280_temperature;BME280_humidity;BME280_pressure;Samples;Min_cycle;Max_cycle;Signal;HPM_P1;HPM_P2
2022/12/01 00:01:11;;;;;;;49.77;26.62;;;;;;;1.04;83.77;102304.53;1722488;80;21545;-76
2022/12/01 00:03:56;;;;;;;45.30;26.35;;;;;;;1.05;83.79;102299.04;1683249;82;20961;-76
2022/12/01 00:06:41;;;;;;;45.28;26.65;;;;;;;1.07;83.76;102299.98;1721639;80;20987;-76
2022/12/01 00:12:30;;;;;;;45.55;25.60;;;;;;;1.07;83.74;102298.72;1686288;83;20948;-76
2022/12/01 00:15:14;;;;;;;48.63;26.80;;;;;;;1.08;83.69;102307.70;1655852;84;20921;-76
2022/12/01 00:18:00;;;;;;;49.15;27.37;;;;;;;1.06;83.76;102294.02;1684129;82;21032;-76
2022/12/01 00:20:49;;;;;;;44.65;26.62;;;;;;;1.07;83.69;102292.34;1723515;80;20947;-76
2022/12/01 00:23:32;;;;;;;41.18;23.95;;;;;;;1.08;83.71;102298.79;1724037;80;20955;-76
2022/12/01 00:26:18;;;;;;;42.67;24.47;;;;;;;1.07;83.63;102296.17;1725334;80;20939;-76
2022/12/01 00:29:03;;;;;;;39.35;23.50;;;;;;;1.06;83.64;102299.11;1724234;80;21541;-75
2022/12/01 00:31:49;;;;;;;45.12;26.57;;;;;;;1.05;83.65;102296.49;1723776;80;20942;-76
2022/12/01 00:34:34;;;;;;;48.85;26.52;;;;;;;1.06;83.64;102294.02;1681776;82;21520;-76
2022/12/01 00:37:19;;;;;;;48.58;27.37;;;;;;;1.06;83.69;102290.20;1723776;80;20931;-76
2022/12/01 00:40:05;;;;;;;46.58;26.12;;;;;;;1.07;83.67;102287.25;1722244;80;20958;-76
2022/12/01 00:42:50;;;;;;;45.17;26.48;;;;;;;1.08;83.65;102294.09;1684655;82;20929;-76
2022/12/01 00:45:36;;;;;;;44.83;25.10;;;;;;;1.06;83.60;102290.59;1723560;80;21491;-76
2022/12/01 00:48:21;;;;;;;41.40;24.80;;;;;;;1.05;83.59;102291.00;1664570;82;20914;-75
2022/12/01 00:51:06;;;;;;;37.38;22.82;;;;;;;1.07;83.63;102288.13;1663565;83;21531;-75
2022/12/01 00:53:51;;;;;;;38.98;23.92;;;;;;;1.08;83.54;102283.91;1713375;81;20939;-76
2022/12/01 00:56:36;;;;;;;42.45;24.87;;;;;;;1.06;83.57;102286.38;1714220;81;21266;-76
2022/12/01 00:59:21;;;;;;;37.45;22.77;;;;;;;1.06;83.53;102280.02;1712585;81;21574;-76
2022/12/01 01:02:07;;;;;;;39.27;22.48;;;;;;;1.05;83.51;102277.39;1712160;81;20990;-76
2022/12/01 01:04:52;;;;;;;35.08;21.82;;;;;;;1.05;83.49;102278.66;1713036;81;20943;-76
2022/12/01 01:07:37;;;;;;;40.75;23.40;;;;;;;1.05;83.52;102277.39;1711754;81;20972;-76
2022/12/01 01:10:22;;;;;;;42.90;24.40;;;;;;;1.04;83.48;102282.04;1713420;81;20935;-76
2022/12/01 01:13:07;;;;;;;40.23;24.40;;;;;;;1.04;83.48;102270.14;1711988;81;20967;-76
2022/12/01 01:16:06;;;;;;;41.63;23.60;;;;;;;1.04;83.45;102272.69;1712545;81;21369;-76
2022/12/01 01:18:50;;;;;;;40.65;24.00;;;;;;;1.02;83.39;102278.14;1715806;81;20943;-76
2022/12/01 01:21:36;;;;;;;36.17;22.62;;;;;;;1.01;83.41;102280.62;1713698;81;20936;-75
2022/12/01 01:24:21;;;;;;;40.33;23.77;;;;;;;0.99;83.37;102283.95;1712644;81;20935;-76
2022/12/01 01:27:06;;;;;;;36.00;21.93;;;;;;;0.99;83.39;102281.81;1714033;81;20947;-76
2022/12/01 01:29:50;;;;;;;32.05;19.82;;;;;;;0.98;83.38;102284.76;1712390;81;20927;-76
2022/12/01 01:32:35;;;;;;;30.85;18.95;;;;;;;0.96;83.27;102291.45;1713681;81;21535;-76
2022/12/01 01:35:20;;;;;;;31.93;18.82;;;;;;;0.94;83.24;102293.44;1713538;81;20900;-76
2022/12/01 01:38:05;;;;;;;33.00;20.25;;;;;;;0.92;83.20;102293.77;1713481;81;20928;-76
2022/12/01 01:40:50;;;;;;;29.45;18.95;;;;;;;0.88;83.18;102295.68;1716513;81;20903;-76
2022/12/01 01:43:54;;;;;;;31.90;19.52;;;;;;;0.87;83.20;102293.94;1711212;81;21396;-75
2022/12/01 01:46:39;;;;;;;32.53;19.20;;;;;;;0.86;83.23;102283.27;1712684;81;20963;-76
2022/12/01 01:49:24;;;;;;;28.98;19.48;;;;;;;0.87;83.10;102292.66;1710538;81;20971;-76
2022/12/01 01:52:09;;;;;;;30.85;20.37;;;;;;;0.84;83.14;102288.29;1711253;81;20916;-76
2022/12/01 01:54:55;;;;;;;30.90;20.00;;;;;;;0.83;83.07;102284.39;1713062;81;20916;-76
2022/12/01 01:57:41;;;;;;;29.45;19.02;;;;;;;0.82;83.11;102289.00;1713267;81;21470;-76
2022/12/01 02:00:26;;;;;;;30.65;20.00;;;;;;;0.81;83.12;102280.49;1712348;81;21409;-76
2022/12/01 02:03:15;;;;;;;31.10;19.00;;;;;;;0.82;83.15;102278.82;1709143;81;20946;-76
2022/12/01 02:06:00;;;;;;;32.58;20.85;;;;;;;0.83;83.14;102280.17;1714052;81;20967;-76
2022/12/01 02:08:45;;;;;;;36.45;20.50;;;;;;;0.83;83.08;102282.72;1709787;79;21464;-76
2022/12/01 02:11:47;;;;;;;31.45;20.05;;;;;;;0.83;83.09;102278.02;1709397;81;21491;-76
2022/12/01 02:15:12;;;;;;;31.02;20.43;;;;;;;0.85;83.12;102277.70;1712729;81;20943;-76
2022/12/01 02:18:05;;;;;;;36.03;20.50;;;;;;;0.86;83.09;102280.33;1711448;81;20968;-76
2022/12/01 02:21:16;;;;;;;36.63;21.37;;;;;;;0.90;83.15;102279.68;1707829;81;20943;-76
2022/12/01 02:24:53;;;;;;;37.35;20.60;;;;;;;0.94;83.15;102279.44;1712913;81;20935;-76
2022/12/01 02:28:01;;;;;;;31.52;20.72;;;;;;;0.97;83.12;102280.46;1714053;81;20975;-75
2022/12/01 02:30:53;;;;;;;36.23;22.13;;;;;;;1.01;83.11;102279.34;1712027;81;21550;-76
2022/12/01 02:33:52;;;;;;;35.98;21.93;;;;;;;1.04;83.15;102283.31;1715959;81;20955;-76
2022/12/01 02:36:48;;;;;;;36.33;21.02;;;;;;;1.05;83.08;102284.63;1710415;81;20968;-76
2022/12/01 02:39:53;;;;;;;38.70;22.42;;;;;;;1.06;83.06;102277.86;1712425;81;21380;-76
2022/12/01 02:43:01;;;;;;;33.85;21.55;;;;;;;1.08;83.08;102280.95;1711556;81;20967;-76
2022/12/01 02:46:11;;;;;;;35.55;21.20;;;;;;;1.10;83.06;102276.81;1714722;81;20932;-76
2022/12/01 02:49:01;;;;;;;34.05;20.60;;;;;;;1.11;83.05;102277.29;1713029;81;20951;-75
2022/12/01 02:51:48;;;;;;;34.70;22.27;;;;;;;1.12;83.02;102283.26;1711451;81;20963;-76
2022/12/01 02:54:33;;;;;;;33.00;19.82;;;;;;;1.12;83.05;102281.59;1708843;81;21538;-76
2022/12/01 02:57:19;;;;;;;32.15;20.43;;;;;;;1.12;83.00;102279.44;1707239;81;20948;-76
2022/12/01 03:00:05;;;;;;;33.73;20.43;;;;;;;1.13;83.04;102280.78;1710971;81;20944;-76
2022/12/01 03:03:07;;;;;;;34.80;21.35;;;;;;;1.15;83.03;102282.14;1699706;81;21650;-76
2022/12/01 03:06:36;;;;;;;36.33;21.57;;;;;;;1.15;83.00;102276.64;1712813;81;21490;-76
2022/12/01 03:09:54;;;;;;;40.15;20.48;;;;;;;1.16;83.02;102282.61;1709832;81;20904;-76
2022/12/01 03:12:50;;;;;;;34.92;20.62;;;;;;;1.15;82.96;102277.91;1713829;81;21551;-76
2022/12/01 03:16:14;;;;;;;35.38;20.45;;;;;;;1.13;82.94;102279.91;1710549;81;21452;-76
2022/12/01 03:19:19;;;;;;;40.48;21.60;;;;;;;1.12;82.93;102271.80;1712578;81;21550;-76
2022/12/01 03:22:27;;;;;;;38.08;20.25;;;;;;;1.11;82.95;102266.23;1711798;81;21385;-76
2022/12/01 03:25:13;;;;;;;33.45;20.20;;;;;;;1.11;82.95;102266.23;1715690;81;20927;-76
2022/12/01 03:27:58;;;;;;;;;;;;;;;1.12;82.97;102266.70;1715149;81;20916;-76
2022/12/01 03:30:45;;;;;;;35.95;21.33;;;;;;;1.13;82.88;102264.63;1712992;81;20139;-76
2022/12/01 03:33:38;;;;;;;35.05;22.32;;;;;;;1.13;82.91;102258.26;1712240;81;20996;-75
2022/12/01 03:36:42;;;;;;;33.85;20.68;;;;;;;1.14;82.94;102261.28;1711407;81;21266;-75
2022/12/01 03:39:34;;;;;;;36.63;22.07;;;;;;;1.13;82.91;102260.41;1711240;81;20908;-75
2022/12/01 03:42:35;;;;;;;40.40;21.87;;;;;;;1.14;82.90;102261.28;1666705;83;21303;-76
2022/12/01 03:45:35;;;;;;;35.23;21.33;;;;;;;1.15;82.84;102261.76;1659820;84;21734;-76
2022/12/01 03:48:20;;;;;;;36.13;22.60;;;;;;;1.11;82.77;102254.77;1673216;82;20959;-75
2022/12/01 03:51:21;;;;;;;40.38;22.82;;;;;;;1.10;82.83;102256.44;1673163;83;21029;-76
2022/12/01 03:54:18;;;;;;;38.73;22.87;;;;;;;1.09;82.84;102259.78;1722648;80;20911;-76
2022/12/01 03:57:08;;;;;;;42.23;22.15;;;;;;;1.10;82.87;102258.11;1728945;79;20943;-76
2022/12/01 03:59:53;;;;;;;39.35;23.10;;;;;;;1.08;82.81;102252.06;1716085;82;20955;-76
2022/12/01 04:02:39;;;;;;;39.38;23.18;;;;;;;1.09;82.83;102247.45;1675006;84;21905;-76
2022/12/01 04:05:26;;;;;;;40.88;24.00;;;;;;;1.10;82.87;102250.47;1670316;84;21006;-76
2022/12/01 04:08:11;;;;;;;36.20;22.30;;;;;;;1.10;82.78;102248.80;1723482;82;21250;-76
2022/12/01 04:10:56;;;;;;;36.85;23.25;;;;;;;1.09;82.80;102252.54;1724923;81;20987;-76
2022/12/01 04:13:41;;;;;;;39.48;23.85;;;;;;;1.09;82.79;102252.54;1722998;82;20943;-76
2022/12/01 04:16:26;;;;;;;36.53;22.80;;;;;;;1.08;82.80;102252.94;1719964;82;20927;-76
2022/12/01 04:19:11;;;;;;;37.75;21.87;;;;;;;1.08;82.79;102252.94;1723824;82;20979;-76
2022/12/01 04:21:56;;;;;;;40.73;23.57;;;;;;;1.08;82.77;102255.89;1715113;82;20959;-76
2022/12/01 04:24:41;;;;;;;42.55;24.23;;;;;;;1.07;82.76;102252.47;1712639;82;20991;-76
2022/12/01 04:27:26;;;;;;;38.58;23.38;;;;;;;1.06;82.76;102253.27;1676395;81;21178;-76
2022/12/01 04:30:12;;;;;;;40.00;24.18;;;;;;;1.07;82.79;102252.86;1722646;82;20951;-76
2022/12/01 04:32:57;;;;;;;40.43;24.57;;;;;;;1.06;82.73;102250.72;1725792;82;20927;-76
2022/12/01 04:35:41;;;;;;;42.23;24.27;;;;;;;1.07;82.80;102251.59;1675358;84;20969;-76
2022/12/01 04:38:27;;;;;;;41.65;25.12;;;;;;;1.09;82.79;102257.64;1728848;82;20915;-76
2022/12/01 04:41:12;;;;;;;43.92;24.85;;;;;;;1.10;82.79;102248.80;1722432;81;21775;-76
2022/12/01 04:43:57;;;;;;;40.15;24.37;;;;;;;1.10;82.77;102248.80;1724894;82;21297;-76
2022/12/01 04:46:42;;;;;;;38.60;24.12;;;;;;;1.11;82.76;102258.58;1722507;82;20939;-76
2022/12/01 04:49:27;;;;;;;43.65;25.57;;;;;;;1.11;82.75;102256.03;1728130;82;20990;-76
2022/12/01 04:52:12;;;;;;;39.48;24.07;;;;;;;1.10;82.73;102256.84;1730713;80;20959;-76
2022/12/01 04:54:57;;;;;;;41.40;25.88;;;;;;;1.11;82.78;102254.77;1728148;81;21542;-76
2022/12/01 04:57:42;;;;;;;41.80;24.47;;;;;;;1.13;82.81;102258.26;1729076;81;20919;-76
2022/12/01 05:00:27;;;;;;;41.85;24.65;;;;;;;1.13;82.76;102261.68;1729345;81;20954;-76
2022/12/01 05:03:12;;;;;;;37.75;24.55;;;;;;;1.15;82.76;102261.36;1727315;80;21447;-76
2022/12/01 05:06:05;;;;;;;43.17;25.32;;;;;;;1.16;82.76;102264.78;1731718;81;21058;-76
2022/12/01 05:08:52;;;;;;;39.38;25.23;;;;;;;1.19;82.80;102263.25;1726029;80;21493;-77
2022/12/01 05:11:37;;;;;;;41.65;24.23;;;;;;;1.21;82.79;102262.92;1723728;82;20919;-77
2022/12/01 05:14:22;;;;;;;41.02;24.60;;;;;;;1.20;82.74;102261.18;1682059;82;21256;-77
2022/12/01 05:17:08;;;;;;;46.23;24.75;;;;;;;1.23;82.75;102266.83;1718770;82;21046;-77
2022/12/01 05:22:59;;;;;;;44.70;25.30;;;;;;;1.24;82.75;102262.20;1682425;82;21626;-77
2022/12/01 05:25:44;;;;;;;40.67;24.27;;;;;;;1.23;82.69;102261.33;1719976;80;20919;-77
2022/12/01 05:28:29;;;;;;;46.05;25.70;;;;;;;1.24;82.73;102259.66;1721906;82;21045;-77
2022/12/01 05:31:14;;;;;;;47.10;24.55;;;;;;;1.25;82.71;102259.73;1683102;84;20997;-76
2022/12/01 05:33:59;;;;;;;42.35;25.48;;;;;;;1.25;82.69;102265.22;1722671;82;21965;-78
2022/12/01 05:36:44;;;;;;;45.38;26.70;;;;;;;1.23;82.69;102263.00;1724628;82;20923;-77
2022/12/01 05:39:29;;;;;;;47.03;26.68;;;;;;;1.25;82.75;102266.09;1684242;82;20894;-77
2022/12/01 05:42:14;;;;;;;45.65;25.85;;;;;;;1.27;82.74;102268.32;1724108;82;21582;-77
2022/12/01 05:44:58;;;;;;;43.75;25.52;;;;;;;1.29;82.74;102267.99;1724351;82;21329;-77
2022/12/01 05:47:44;;;;;;;42.58;26.27;;;;;;;1.29;82.70;102269.67;1684727;82;21427;-77
2022/12/01 05:50:30;;;;;;;43.73;25.30;;;;;;;1.30;82.68;102273.97;1721547;80;21058;-77
2022/12/01 05:53:15;;;;;;;45.35;26.05;;;;;;;1.28;82.67;102266.65;1678214;84;20942;-77
2022/12/01 05:55:59;;;;;;;50.40;26.85;;;;;;;1.31;82.73;102273.16;1680425;83;20958;-77
2022/12/01 05:58:44;;;;;;;44.63;25.88;;;;;;;1.31;82.66;102275.72;1719225;80;20923;-77
2022/12/01 06:01:30;;;;;;;46.05;26.70;;;;;;;1.30;82.67;102271.02;1720295;80;20914;-77
2022/12/01 06:04:15;;;;;;;50.23;29.12;;;;;;;1.31;82.68;102276.59;1681032;82;21847;-77
2022/12/01 06:07:00;;;;;;;45.90;26.75;;;;;;;1.31;82.67;102275.31;1653049;80;5000593;-77
2022/12/01 06:09:45;;;;;;;44.23;24.98;;;;;;;1.31;82.63;102273.16;1669498;85;20957;-77
2022/12/01 06:12:30;;;;;;;45.40;26.68;;;;;;;1.33;82.69;102274.11;1685049;82;20945;-77
2022/12/01 06:15:15;;;;;;;48.28;28.92;;;;;;;1.32;82.63;102284.70;1720693;82;20951;-77
2022/12/01 06:18:00;;;;;;;45.00;26.52;;;;;;;1.32;82.65;102283.43;1719719;82;21378;-77
2022/12/01 06:20:45;;;;;;;45.90;27.90;;;;;;;1.35;82.67;102285.66;1682558;82;20952;-76
2022/12/01 06:23:30;;;;;;;43.38;25.90;;;;;;;1.35;82.65;102292.02;1717833;82;21305;-77
2022/12/01 06:26:15;;;;;;;46.37;25.80;;;;;;;1.35;82.66;102287.80;1721249;82;20950;-77
2022/12/01 06:29:00;;;;;;;46.02;26.42;;;;;;;1.35;82.61;102290.75;1681661;82;21548;-77
2022/12/01 06:31:45;;;;;;;50.78;27.55;;;;;;;1.36;82.66;102297.20;1722714;82;20931;-76
2022/12/01 06:34:30;;;;;;;41.13;25.52;;;;;;;1.38;82.63;102299.42;1721375;82;20915;-77
2022/12/01 06:37:15;;;;;;;44.45;25.15;;;;;;;1.38;82.62;102293.05;1720351;82;20919;-77
2022/12/01 06:40:00;;;;;;;47.88;26.30;;;;;;;1.39;82.64;102296.07;1684774;82;21460;-77
2022/12/01 06:42:45;;;;;;;46.02;25.02;;;;;;;1.40;82.61;102299.49;1682946;82;21867;-77
2022/12/01 06:45:30;;;;;;;43.02;24.95;;;;;;;1.40;82.60;102299.09;1720712;82;21043;-77
2022/12/01 06:48:15;;;;;;;42.70;24.82;;;;;;;1.40;82.59;102307.14;1724072;80;20923;-77
2022/12/01 06:51:01;;;;;;;40.45;24.87;;;;;;;1.42;82.61;102309.36;1681810;82;21787;-75
2022/12/01 06:53:46;;;;;;;42.83;26.57;;;;;;;1.44;82.62;102312.86;1654283;85;21084;-75
2022/12/01 06:56:31;;;;;;;46.28;25.72;;;;;;;1.46;82.63;102316.36;1684376;82;20972;-75
2022/12/01 06:59:16;;;;;;;49.15;27.62;;;;;;;1.46;82.60;102313.41;1719050;82;21578;-75
2022/12/01 07:02:01;;;;;;;43.25;25.92;;;;;;;1.47;82.61;102311.33;1723708;80;21525;-75
2022/12/01 07:04:47;;;;;;;51.30;28.67;;;;;;;1.49;82.62;102312.68;1684111;82;20989;-75
2022/12/01 07:07:37;;;;;;;47.53;26.97;;;;;;;1.49;82.53;102316.11;1721026;82;21480;-75
2022/12/01 07:10:21;;;;;;;44.65;26.68;;;;;;;1.51;82.59;102317.45;1719633;80;20974;-75
2022/12/01 07:13:06;;;;;;;48.65;28.30;;;;;;;1.51;82.57;102315.78;1683646;82;21072;-75
2022/12/01 07:15:52;;;;;;;46.85;25.82;;;;;;;1.51;82.54;102313.62;1722846;81;21035;-75
2022/12/01 07:18:37;;;;;;;42.53;26.37;;;;;;;1.50;82.54;102316.98;1720268;80;21019;-75
2022/12/01 07:21:23;;;;;;;43.80;25.30;;;;;;;1.52;82.59;102319.20;1720910;81;21423;-75
2022/12/01 07:24:08;;;;;;;43.60;25.08;;;;;;;1.54;82.59;102323.57;1722827;81;20915;-75
2022/12/01 07:26:53;;;;;;;42.13;24.70;;;;;;;1.55;82.55;102325.32;1720078;80;20975;-75
2022/12/01 07:29:38;;;;;;;41.77;26.00;;;;;;;1.56;82.57;102324.48;1721273;80;20931;-75
2022/12/01 07:32:23;;;;;;;37.93;23.87;;;;;;;1.57;82.52;102322.81;1719560;80;21435;-75
2022/12/01 07:35:09;;;;;;;42.65;24.72;;;;;;;1.58;82.55;102322.02;1723377;82;21011;-75
2022/12/01 07:37:55;;;;;;;43.68;25.55;;;;;;;1.60;82.52;102319.14;1723039;82;20966;-75
2022/12/01 07:40:39;;;;;;;;;;;;;;;1.61;82.53;102323.44;1721794;82;20963;-75
2022/12/01 07:43:24;;;;;;;37.75;22.95;;;;;;;1.61;82.46;102323.03;1723126;82;20438;-75
2022/12/01 07:46:13;;;;;;;45.05;24.90;;;;;;;1.61;82.51;102319.21;1721460;82;21344;-75
2022/12/01 07:48:59;;;;;;;41.60;24.27;;;;;;;1.63;82.53;102323.98;1678621;82;20961;-74
2022/12/01 07:51:43;;;;;;;41.03;24.13;;;;;;;1.65;82.53;102321.50;1722052;82;21397;-75
2022/12/01 07:54:28;;;;;;;43.13;25.62;;;;;;;1.67;82.53;102328.83;1723084;82;20975;-75
2022/12/01 07:57:13;;;;;;;44.38;25.20;;;;;;;1.68;82.54;102324.20;1717518;81;21400;-75
2022/12/01 07:59:58;;;;;;;46.68;24.70;;;;;;;1.72;82.51;102326.50;1674105;84;21050;-75
2022/12/01 08:02:43;;;;;;;43.00;24.87;;;;;;;1.72;82.52;102326.09;1721335;82;21801;-75
2022/12/01 08:05:28;;;;;;;43.75;24.52;;;;;;;1.74;82.51;102329.59;1719818;80;117273;-75
2022/12/01 08:08:13;;;;;;;42.30;25.20;;;;;;;1.76;82.50;102327.98;1721519;80;20967;-75
2022/12/01 08:11:05;;;;;;;56.37;30.12;;;;;;;1.77;82.49;102329.73;1720848;81;21432;-75
2022/12/01 08:13:51;;;;;;;53.70;28.85;;;;;;;1.78;82.48;102324.23;1713872;82;20939;-75
2022/12/01 08:16:36;;;;;;;52.45;29.52;;;;;;;1.76;82.47;102326.71;1716562;82;21357;-75
2022/12/01 08:19:21;;;;;;;53.15;29.82;;;;;;;1.78;82.49;102327.66;1671795;82;21300;-75
2022/12/01 08:22:06;;;;;;;53.98;28.02;;;;;;;1.78;82.48;102331.48;1716804;82;20958;-75
2022/12/01 08:24:51;;;;;;;46.10;25.97;;;;;;;1.79;82.51;102325.58;1721603;82;20974;-75
2022/12/01 08:30:17;;;;;;;44.93;26.57;;;;;;;1.86;82.53;102333.12;1836831;75;22080;-74
2022/12/01 08:33:02;;;;;;;46.83;27.23;;;;;;;1.85;82.49;102336.47;1795359;77;21355;-75
2022/12/01 08:35:47;;;;;;;47.45;27.77;;;;;;;1.85;82.45;102327.15;1806547;78;21505;-76
2022/12/01 08:38:32;;;;;;;44.98;27.05;;;;;;;1.88;82.49;102337.49;1803029;77;20989;-76
2022/12/01 08:41:18;;;;;;;48.08;29.00;;;;;;;1.86;82.49;102335.27;1794576;77;20972;-75
2022/12/01 08:44:04;;;;;;;46.33;27.20;;;;;;;1.87;82.49;102333.20;1799791;78;20974;-75
2022/12/01 08:46:49;;;;;;;45.12;26.82;;;;;;;1.89;82.48;102337.09;1799994;77;21060;-75
2022/12/01 08:49:34;;;;;;;49.35;27.77;;;;;;;1.88;82.45;102336.62;1786364;77;21008;-75
2022/12/01 08:52:20;;;;;;;44.00;25.95;;;;;;;1.88;82.48;102331.11;1732101;77;5001212;-75
2022/12/01 08:55:07;;;;;;;47.08;27.22;;;;;;;1.89;82.50;102329.04;1797164;77;20982;-75
2022/12/01 08:57:52;;;;;;;49.93;29.87;;;;;;;1.91;82.48;102335.48;1794760;77;21171;-76
2022/12/01 09:00:37;;;;;;;52.98;29.23;;;;;;;1.91;82.47;102333.81;1798564;78;21073;-76
2022/12/01 09:03:22;;;;;;;42.33;26.70;;;;;;;1.92;82.45;102330.45;1800268;77;21455;-76
2022/12/01 09:06:11;;;;;;;54.48;33.83;;;;;;;1.93;82.42;102327.51;1802992;78;21490;-76
2022/12/01 09:08:59;;;;;;;51.18;29.02;;;;;;;1.93;82.43;102337.31;1800490;77;21385;-76
2022/12/01 09:11:46;;;;;;;51.25;28.87;;;;;;;1.93;82.43;102333.88;1798499;78;21509;-75
2022/12/01 09:14:30;;;;;;;53.30;32.13;;;;;;;1.92;82.39;102336.84;1803735;77;21104;-75
2022/12/01 09:17:16;;;;;;;60.75;35.73;;;;;;;1.92;82.39;102330.45;1806053;77;21624;-75
2022/12/01 09:20:02;;;;;;;65.22;36.93;;;;;;;1.94;82.42;102330.12;1800426;78;29132;-75
2022/12/01 09:22:47;;;;;;;55.80;33.88;;;;;;;1.95;82.42;102331.00;1800334;77;21010;-75
2022/12/01 09:25:33;;;;;;;53.05;32.00;;;;;;;1.96;82.44;102330.20;1801221;78;21092;-75
2022/12/01 09:28:18;;;;;;;61.00;32.90;;;;;;;1.95;82.41;102331.87;1769296;78;27445;-75
2022/12/01 09:31:11;;;;;;;53.80;30.70;;;;;;;1.96;82.41;102327.65;1805569;77;21294;-75
2022/12/01 09:34:03;;;;;;;58.80;32.30;;;;;;;1.92;82.31;102327.91;1800783;77;21084;-76
2022/12/01 09:36:49;;;;;;;54.15;29.85;;;;;;;1.90;82.36;102326.96;1809695;77;20981;-76
2022/12/01 09:39:34;;;;;;;84.10;42.73;;;;;;;1.89;82.37;102320.11;1804895;77;21057;-76
2022/12/01 09:42:26;;;;;;;77.40;41.05;;;;;;;1.89;82.38;102321.78;1806688;77;21057;-76
2022/12/01 09:45:13;;;;;;;71.95;37.38;;;;;;;1.91;82.37;102318.91;1806057;77;21112;-76
2022/12/01 09:48:02;;;;;;;61.70;34.75;;;;;;;1.90;82.38;102315.88;1808105;77;21009;-76
2022/12/01 09:50:47;;;;;;;62.93;36.17;;;;;;;1.89;82.29;102316.69;1805347;78;21049;-76
2022/12/01 09:53:32;;;;;;;58.92;32.55;;;;;;;1.89;82.35;102307.77;1803726;77;21097;-76
2022/12/01 09:56:28;;;;;;;60.52;34.73;;;;;;;1.90;82.33;102305.68;1801804;77;21045;-76
2022/12/01 09:59:19;;;;;;;56.95;31.95;;;;;;;1.90;82.35;102303.12;1805435;77;21451;-76
2022/12/01 10:02:09;;;;;;;54.30;30.48;;;;;;;1.89;82.30;102305.20;1805197;77;20942;-76
2022/12/01 10:04:58;;;;;;;52.75;29.52;;;;;;;1.90;82.37;102302.73;1808501;77;21466;-76
2022/12/01 10:07:47;;;;;;;51.92;29.40;;;;;;;1.91;82.35;102304.48;1807104;77;20930;-76
2022/12/01 10:10:50;;;;;;;55.83;30.60;;;;;;;1.93;82.35;102304.14;1806443;77;21628;-76
2022/12/01 10:13:35;;;;;;;47.23;25.97;;;;;;;1.96;82.38;102299.19;1806500;78;20875;-76
2022/12/01 10:16:25;;;;;;;44.50;26.57;;;;;;;2.01;82.38;102299.40;1805164;77;20902;-76
2022/12/01 10:19:18;;;;;;;43.02;25.45;;;;;;;2.03;82.36;102290.54;1807994;77;20914;-76
2022/12/01 10:22:43;;;;;;;43.17;24.50;;;;;;;2.06;82.32;102294.10;1805304;77;21327;-76
2022/12/01 10:25:59;;;;;;;40.48;24.35;;;;;;;2.06;82.31;102285.17;1805707;77;20918;-76
2022/12/01 10:29:07;;;;;;;42.98;26.55;;;;;;;2.12;82.30;102281.59;1804480;77;21367;-76
2022/12/01 10:31:59;;;;;;;47.07;26.90;;;;;;;2.16;82.33;102278.77;1661441;78;5000760;-75
2022/12/01 10:34:46;;;;;;;45.55;27.42;;;;;;;2.20;82.26;102277.70;1675604;84;21951;-76
2022/12/01 10:37:31;;;;;;;58.83;29.72;;;;;;;2.24;82.26;102276.16;1676610;84;21805;-76
2022/12/01 10:40:16;;;;;;;44.95;25.37;;;;;;;2.27;82.24;102267.37;1671164;84;20973;-76
2022/12/01 10:43:02;;;;;;;42.50;23.62;;;;;;;2.28;82.23;102273.81;1634367;85;20949;-76
2022/12/01 10:45:46;;;;;;;34.00;21.75;;;;;;;2.30;82.18;102276.44;1632509;86;20965;-76
2022/12/01 10:48:31;;;;;;;36.03;22.30;;;;;;;2.31;82.19;102273.08;1630469;86;20969;-76
2022/12/01 10:51:18;;;;;;;43.55;23.42;;;;;;;2.31;82.11;102276.50;1632254;85;21002;-76
2022/12/01 10:54:10;;;;;;;37.42;22.35;;;;;;;2.32;82.12;102271.00;1629358;86;21584;-76
2022/12/01 10:56:56;;;;;;;35.60;23.00;;;;;;;2.32;82.17;102268.05;1518122;86;10000890;-76
2022/12/01 11:00:01;;;;;;;37.38;22.35;;;;;;;2.33;82.16;102268.52;1632696;86;20949;-76
2022/12/01 11:02:47;;;;;;;37.20;23.20;;;;;;;2.36;82.16;102268.17;1630977;86;20953;-76
2022/12/01 11:05:39;;;;;;;35.90;22.48;;;;;;;2.35;82.10;102260.92;1633359;85;21453;-78
2022/12/01 11:08:42;;;;;;;34.35;22.35;;;;;;;2.37;82.13;102260.59;1631210;86;21521;-76
2022/12/01 11:11:37;;;;;;;38.95;21.77;;;;;;;2.39;82.14;102257.70;1632313;86;20973;-76
2022/12/01 11:14:30;;;;;;;33.85;21.30;;;;;;;2.42;82.14;102255.68;1632059;86;21364;-76
2022/12/01 11:17:34;;;;;;;30.77;21.02;;;;;;;2.44;82.14;102262.59;1630946;86;21962;-76
2022/12/01 11:20:29;;;;;;;35.15;22.20;;;;;;;2.47;82.11;102252.92;1630092;86;20938;-76
2022/12/01 11:23:25;;;;;;;39.58;22.80;;;;;;;2.49;82.08;102242.38;1638587;86;20996;-76
2022/12/01 11:26:29;;;;;;;35.48;22.50;;;;;;;2.53;82.14;102250.23;1642217;85;20941;-76
2022/12/01 11:29:36;;;;;;;39.35;22.45;;;;;;;2.59;82.10;102255.60;1639907;85;21135;-76
2022/12/01 11:32:34;;;;;;;39.00;23.22;;;;;;;2.58;82.01;102253.86;1630435;86;20961;-76
2022/12/01 11:35:22;;;;;;;38.50;22.50;;;;;;;2.59;82.02;102250.50;1637430;86;21445;-76
2022/12/01 11:38:11;;;;;;;32.28;21.40;;;;;;;2.59;82.04;102250.50;1617269;86;21885;-76
2022/12/01 11:40:57;;;;;;;33.83;21.97;;;;;;;2.62;82.02;102250.59;1632667;86;20958;-76
2022/12/01 11:43:42;;;;;;;45.17;25.30;;;;;;;2.60;81.91;102249.66;1632711;86;21541;-76
2022/12/01 11:46:34;;;;;;;40.58;23.73;;;;;;;2.61;81.97;102251.40;1633781;86;21364;-76
2022/12/01 11:49:23;;;;;;;36.10;23.15;;;;;;;2.61;81.96;102253.08;1627178;85;21561;-76
2022/12/01 11:52:30;;;;;;;45.55;26.05;;;;;;;2.60;81.95;102251.37;1625026;86;21005;-76
2022/12/01 11:55:20;;;;;;;46.50;26.57;;;;;;;2.61;81.96;102250.13;1625041;85;21574;-76
2022/12/01 11:58:07;;;;;;;46.85;29.35;;;;;;;2.61;81.93;102250.13;1622757;86;21035;-76
2022/12/01 12:00:55;;;;;;;60.03;32.88;;;;;;;2.61;81.97;102250.13;1622261;86;21526;-75
2022/12/01 12:03:45;;;;;;;55.50;31.30;;;;;;;2.62;81.97;102242.94;1622579;87;20946;-76
2022/12/01 12:06:55;;;;;;;53.00;28.38;;;;;;;2.64;81.97;102240.04;1611773;86;21412;-76
2022/12/01 12:10:28;;;;;;;44.27;27.13;;;;;;;2.65;81.96;102242.19;1624796;86;20942;-76
2022/12/01 12:13:30;;;;;;;46.53;24.87;;;;;;;2.66;81.94;102237.15;1622584;86;22021;-76
2022/12/01 12:16:32;;;;;;;48.55;28.85;;;;;;;2.68;81.96;102240.17;1625534;86;21561;-76
2022/12/01 12:19:59;;;;;;;42.95;26.20;;;;;;;2.66;81.89;102246.09;1603193;86;20974;-76
2022/12/01 12:23:31;;;;;;;47.15;27.20;;;;;;;2.64;81.87;102240.04;1620475;87;21537;-76
2022/12/01 12:26:27;;;;;;;41.23;25.25;;;;;;;2.62;81.81;102242.94;1620646;86;21062;-76
2022/12/01 12:29:18;;;;;;;;;;;;;;;2.61;81.86;102241.59;1623950;86;20973;-76
2022/12/01 12:32:31;;;;;;;38.17;23.25;;;;;;;2.61;81.80;102246.70;1637763;85;20159;-76
2022/12/01 12:35:39;;;;;;;50.95;28.12;;;;;;;2.59;81.84;102246.67;1637972;85;20993;-76
2022/12/01 12:38:29;;;;;;;51.42;27.50;;;;;;;2.60;81.87;102244.55;1646782;85;20941;-76
2022/12/01 12:41:28;;;;;;;47.03;27.82;;;;;;;2.61;81.87;102239.03;1584482;85;20925;-76
2022/12/01 12:44:39;;;;;;;50.35;28.38;;;;;;;2.60;81.82;102240.72;1648719;85;20981;-76
2022/12/01 12:47:35;;;;;;;46.80;26.90;;;;;;;2.60;81.85;102234.77;1638190;85;21484;-76
2022/12/01 12:50:32;;;;;;;;;;;;;;;2.60;81.87;102238.16;1643488;85;20944;-76
2022/12/01 12:53:22;;;;;;;41.13;24.65;;;;;;;2.62;81.79;102237.83;1648064;85;20145;-76
2022/12/01 12:56:11;;;;;;;42.58;25.92;;;;;;;2.63;81.88;102238.30;1647169;85;20929;-76
2022/12/01 12:59:04;;;;;;;49.63;26.85;;;;;;;2.65;81.89;102238.36;1648434;85;20946;-76
2022/12/01 13:01:57;;;;;;;43.52;25.82;;;;;;;2.66;81.89;102237.15;1649353;85;21533;-76
2022/12/01 13:04:59;;;;;;;39.42;24.52;;;;;;;2.66;81.80;102239.70;1643819;85;20945;-76
2022/12/01 13:07:52;;;;;;;41.63;24.47;;;;;;;2.65;81.79;102237.95;1647968;85;21519;-76
2022/12/01 13:11:00;;;;;;;39.50;25.62;;;;;;;2.63;81.79;102233.59;1648151;85;21512;-76